Vattmanville, Texas
Current Conditions -  °F | °C
As of 10:16 AM on Saturday 22 Nov 2014 (Local Time) from KNQI Reporting Station
Light Rain Light Rain  
Wind Chill: 74°   Ceiling: 2900
Heat Index: 74°   Visibility: 10mi
Dew Point: 72°   Wind: 17mph
Humidity: 93%   Direction: 140°SE
Pressure: 29.94"   Gusts: NA
Location:  27.3193°N, 97.8839°W
Report Text: KNQI 221616Z AUTO 14015KT 10SM -RA SCT011 BKN029 OVC047 23/22 A2994 RMK AO2 P0001 T02330222 TSNO $
Loading
Personal Weather Stations






























Interactive Weather Map New forecast layout! Learn more

10-Day Weather Forecast

Advertisements
Track Severe Weather on mobile